Time;durP1;ratioP1;P1;durP2;ratioP2;P2;SDS_P1;SDS_P2;PMS_P1;PMS_P2;Temp;Humidity;BMP_temperature;BMP_pressure;BME280_temperature;BME280_humidity;BME280_pressure;Samples;Min_cycle;Max_cycle;Signal;HPM_P1;HPM_P2
2022/08/09 00:01:08;;;;;;;2.60;1.90;;;22.90;46.50;;;;;;5059280;28;20975;-50
2022/08/09 00:03:40;;;;;;;4.17;1.90;;;22.80;46.70;;;;;;5048018;28;20536;-50
2022/08/09 00:06:27;;;;;;;3.40;1.97;;;22.70;46.90;;;;;;5041913;28;20480;-50
2022/08/09 00:08:57;;;;;;;3.63;2.40;;;22.60;47.00;;;;;;5058935;28;20466;-50
2022/08/09 00:11:24;;;;;;;2.47;2.10;;;22.60;47.20;;;;;;5054730;28;20438;-50
2022/08/09 00:14:12;;;;;;;2.63;2.07;;;22.50;47.50;;;;;;5059230;28;20465;-50
2022/08/09 00:16:47;;;;;;;2.17;1.97;;;22.40;47.70;;;;;;5045784;28;20493;-50
2022/08/09 00:19:16;;;;;;;2.30;2.03;;;22.40;48.00;;;;;;5056688;28;20459;-50
2022/08/09 00:21:44;;;;;;;3.50;2.20;;;22.30;48.00;;;;;;5041698;28;21042;-50
2022/08/09 00:24:23;;;;;;;2.90;2.10;;;22.20;48.20;;;;;;5055064;28;20462;-50
2022/08/09 00:26:50;;;;;;;3.90;2.30;;;22.20;48.30;;;;;;5046052;28;21591;-50
2022/08/09 00:29:18;;;;;;;4.63;2.07;;;22.10;48.60;;;;;;5040290;28;20483;-50
2022/08/09 00:32:05;;;;;;;4.80;2.20;;;22.10;48.60;;;;;;5045135;28;20707;-50
2022/08/09 00:34:31;;;;;;;2.40;2.20;;;22.00;48.70;;;;;;5058237;28;20969;-50
2022/08/09 00:36:59;;;;;;;1.93;1.83;;;21.90;48.90;;;;;;5046466;28;20482;-50
2022/08/09 00:39:26;;;;;;;3.07;1.97;;;21.90;49.00;;;;;;5043084;28;20453;-50
2022/08/09 00:42:12;;;;;;;2.87;2.63;;;21.80;49.10;;;;;;5043250;28;20527;-50
2022/08/09 00:44:59;;;;;;;2.53;2.33;;;21.80;49.20;;;;;;5059036;28;20535;-50
2022/08/09 00:47:40;;;;;;;3.30;2.53;;;21.70;49.40;;;;;;5058914;28;20985;-50
2022/08/09 00:50:09;;;;;;;2.80;2.60;;;21.70;49.50;;;;;;5064683;28;20505;-50
2022/08/09 00:52:41;;;;;;;3.53;2.60;;;21.70;49.70;;;;;;5048602;28;20489;-50
2022/08/09 00:55:08;;;;;;;3.37;2.30;;;21.60;49.80;;;;;;5062072;28;20450;-50
2022/08/09 00:57:51;;;;;;;2.27;2.07;;;21.60;49.80;;;;;;5045983;28;20576;-50
2022/08/09 01:00:26;;;;;;;3.27;2.40;;;21.50;49.80;;;;;;5062009;28;20457;-50
2022/08/09 01:02:58;;;;;;;3.23;2.37;;;21.50;50.00;;;;;;5058616;28;20829;-50
2022/08/09 01:05:32;;;;;;;2.60;1.93;;;21.50;50.20;;;;;;5053140;28;20461;-50
2022/08/09 01:08:52;;;;;;;2.60;2.40;;;21.40;50.30;;;;;;5044214;28;20488;-50
2022/08/09 01:11:49;;;;;;;2.90;2.13;;;21.40;50.20;;;;;;5056573;28;20462;-50
2022/08/09 01:14:38;;;;;;;2.27;2.00;;;21.30;50.30;;;;;;5058763;28;20458;-50
2022/08/09 01:17:15;;;;;;;2.13;2.03;;;21.30;50.50;;;;;;5040652;28;20470;-50
2022/08/09 01:20:07;;;;;;;2.83;2.57;;;21.20;50.60;;;;;;5060938;28;20466;-50
2022/08/09 01:22:53;;;;;;;2.20;2.10;;;21.20;50.80;;;;;;5059657;28;21042;-50
2022/08/09 01:25:35;;;;;;;3.10;1.93;;;21.20;51.00;;;;;;5075951;28;20540;-50
2022/08/09 01:28:09;;;;;;;2.57;2.30;;;21.10;50.90;;;;;;5075738;28;20515;-50
2022/08/09 01:30:39;;;;;;;2.57;1.93;;;21.10;50.80;;;;;;5058396;28;20527;-50
2022/08/09 01:33:22;;;;;;;2.43;2.23;;;21.00;51.00;;;;;;5056523;28;21049;-50
2022/08/09 01:35:53;;;;;;;3.90;2.50;;;21.00;51.10;;;;;;5058230;28;20472;-50
2022/08/09 01:38:25;;;;;;;2.80;2.27;;;21.00;51.00;;;;;;5058957;28;20504;-50
2022/08/09 01:41:00;;;;;;;3.00;2.03;;;20.90;51.20;;;;;;5059504;28;20469;-50
2022/08/09 01:43:34;;;;;;;2.80;2.37;;;20.90;51.10;;;;;;5059733;28;20461;-50
2022/08/09 01:46:28;;;;;;;2.30;2.10;;;20.90;51.00;;;;;;5055783;28;20552;-50
2022/08/09 01:49:08;;;;;;;3.83;2.10;;;20.90;51.10;;;;;;5058509;28;20977;-50
2022/08/09 01:51:47;;;;;;;2.30;1.83;;;20.90;51.10;;;;;;5057461;28;20981;-50
2022/08/09 01:54:24;;;;;;;3.50;2.40;;;20.80;51.10;;;;;;5059877;28;20967;-50
2022/08/09 01:56:56;;;;;;;3.03;2.00;;;20.80;51.10;;;;;;5059339;28;21066;-50
2022/08/09 01:59:23;;;;;;;3.13;2.30;;;20.80;51.10;;;;;;5057033;28;20480;-50
2022/08/09 02:01:53;;;;;;;2.40;2.20;;;20.80;51.30;;;;;;5058091;28;20460;-50
2022/08/09 02:04:28;;;;;;;6.43;2.90;;;20.70;51.20;;;;;;5054810;28;20458;-50
2022/08/09 02:07:08;;;;;;;3.20;2.90;;;20.70;51.40;;;;;;5071145;28;20931;-50
2022/08/09 02:10:05;;;;;;;3.03;1.90;;;20.60;51.50;;;;;;5062755;28;20464;-50
2022/08/09 02:12:33;;;;;;;3.10;2.33;;;20.60;51.60;;;;;;5038282;28;20462;-50
2022/08/09 02:15:04;;;;;;;2.70;2.50;;;20.50;51.80;;;;;;5061649;28;20468;-50
2022/08/09 02:17:34;;;;;;;2.77;2.53;;;20.50;51.90;;;;;;5057056;28;20485;-50
2022/08/09 02:20:21;;;;;;;3.27;2.30;;;20.50;52.10;;;;;;5044688;28;20457;-50
2022/08/09 02:23:11;;;;;;;3.60;2.80;;;20.40;52.40;;;;;;5055942;28;20464;-50
2022/08/09 02:25:44;;;;;;;3.57;3.20;;;20.40;52.50;;;;;;5039976;28;20528;-50
2022/08/09 02:28:46;;;;;;;2.73;2.53;;;20.30;52.50;;;;;;5045119;28;20485;-50
2022/08/09 02:31:20;;;;;;;2.80;2.20;;;20.30;52.50;;;;;;5048968;28;20506;-50
2022/08/09 02:33:52;;;;;;;2.00;1.90;;;20.20;52.60;;;;;;5053598;28;21051;-50
2022/08/09 02:36:42;;;;;;;3.40;2.90;;;20.20;52.90;;;;;;5059820;28;21035;-50
2022/08/09 02:39:14;;;;;;;2.10;1.90;;;20.10;53.00;;;;;;5046840;28;20485;-50
2022/08/09 02:42:04;;;;;;;5.73;2.67;;;20.10;53.10;;;;;;5071813;28;20505;-50
2022/08/09 02:44:39;;;;;;;2.40;2.20;;;20.10;53.20;;;;;;5041772;28;20879;-50
2022/08/09 02:47:10;;;;;;;3.73;2.40;;;20.00;53.40;;;;;;5062603;28;20438;-50
2022/08/09 02:49:46;;;;;;;2.83;2.47;;;20.00;53.60;;;;;;5061272;28;20981;-50
2022/08/09 02:52:33;;;;;;;2.90;2.10;;;19.90;53.50;;;;;;5075160;28;20467;-50
2022/08/09 02:55:02;;;;;;;2.33;2.13;;;19.90;53.50;;;;;;5062164;28;20957;-48
2022/08/09 02:57:49;;;;;;;2.80;2.60;;;19.90;53.60;;;;;;5056102;28;20979;-48
2022/08/09 03:00:40;;;;;;;2.43;1.97;;;19.90;53.90;;;;;;5058055;28;20453;-48
2022/08/09 03:03:25;;;;;;;3.00;2.73;;;19.80;53.70;;;;;;5057538;28;20450;-49
2022/08/09 03:06:14;;;;;;;2.07;1.97;;;19.80;53.90;;;;;;5061105;28;20876;-48
2022/08/09 03:08:44;;;;;;;2.70;2.53;;;19.80;53.90;;;;;;5055829;28;20447;-48
2022/08/09 03:11:17;;;;;;;5.10;3.30;;;19.70;53.80;;;;;;5029997;28;20966;-48
2022/08/09 03:14:05;;;;;;;2.43;2.00;;;19.70;53.80;;;;;;5075302;28;21105;-49
2022/08/09 03:16:33;;;;;;;3.20;2.77;;;19.70;53.90;;;;;;5056360;28;20469;-48
2022/08/09 03:19:06;;;;;;;2.90;2.43;;;19.60;54.20;;;;;;5050551;28;20854;-49
2022/08/09 03:21:55;;;;;;;2.80;2.60;;;19.70;54.10;;;;;;5045751;28;20455;-48
2022/08/09 03:24:23;;;;;;;3.60;2.40;;;19.60;54.30;;;;;;5056364;28;20527;-49
2022/08/09 03:27:08;;;;;;;3.17;2.13;;;19.60;54.50;;;;;;5043358;28;20470;-48
2022/08/09 03:29:37;;;;;;;2.70;2.50;;;19.60;54.50;;;;;;5056766;28;20989;-48
2022/08/09 03:32:26;;;;;;;2.53;2.33;;;19.50;54.80;;;;;;5061195;28;20442;-49
2022/08/09 03:34:54;;;;;;;2.20;2.00;;;19.50;54.80;;;;;;5057720;28;20461;-48
2022/08/09 03:37:23;;;;;;;4.53;2.40;;;19.50;54.80;;;;;;5047569;28;20547;-48
2022/08/09 03:40:11;;;;;;;3.73;2.90;;;19.50;54.90;;;;;;5058359;28;20901;-49
2022/08/09 03:42:39;;;;;;;3.00;2.70;;;19.50;54.90;;;;;;5059939;28;20507;-48
2022/08/09 03:45:09;;;;;;;2.50;2.30;;;19.50;54.80;;;;;;5061116;28;20524;-49
2022/08/09 03:47:37;;;;;;;3.20;2.47;;;19.50;54.80;;;;;;5058608;28;20458;-49
2022/08/09 03:50:09;;;;;;;3.07;2.77;;;19.40;54.90;;;;;;5058247;28;20457;-48
2022/08/09 03:52:39;;;;;;;3.60;2.27;;;19.40;54.80;;;;;;5026327;28;20457;-48
2022/08/09 03:55:09;;;;;;;2.87;2.67;;;19.40;55.00;;;;;;5055915;28;20893;-49
2022/08/09 03:57:40;;;;;;;2.63;2.43;;;19.30;55.00;;;;;;5055655;28;20478;-48
2022/08/09 04:00:23;;;;;;;4.20;2.70;;;19.30;55.10;;;;;;5052182;28;20459;-49
2022/08/09 04:02:53;;;;;;;2.87;2.07;;;19.30;55.00;;;;;;5056390;28;20462;-48
2022/08/09 04:05:23;;;;;;;4.57;2.70;;;19.30;54.90;;;;;;5056147;28;20547;-48
2022/08/09 04:07:54;;;;;;;7.50;3.20;;;19.30;54.90;;;;;;5053842;28;20545;-49
2022/08/09 04:10:24;;;;;;;5.17;2.60;;;19.30;55.20;;;;;;5055971;28;20900;-48
2022/08/09 04:12:59;;;;;;;3.97;2.60;;;19.30;55.30;;;;;;5076342;28;20824;-49
2022/08/09 04:15:30;;;;;;;2.97;2.67;;;19.30;55.40;;;;;;5051662;28;20989;-48
2022/08/09 04:18:18;;;;;;;3.07;2.77;;;19.30;55.60;;;;;;5055601;28;20489;-49
2022/08/09 04:20:49;;;;;;;4.00;2.60;;;19.30;55.70;;;;;;5051651;28;20456;-49
2022/08/09 04:23:17;;;;;;;6.87;3.00;;;19.30;55.90;;;;;;5041188;28;20504;-48
2022/08/09 04:25:50;;;;;;;4.00;2.77;;;19.30;55.90;;;;;;5039845;28;20560;-48
2022/08/09 04:28:20;;;;;;;4.03;2.60;;;19.30;55.90;;;;;;5056715;28;20527;-48
2022/08/09 04:31:04;;;;;;;2.80;2.40;;;19.30;55.90;;;;;;5071424;28;20802;-49
2022/08/09 04:33:35;;;;;;;4.00;3.00;;;19.30;56.00;;;;;;5057280;28;20465;-49
2022/08/09 04:36:21;;;;;;;3.10;2.57;;;19.30;56.10;;;;;;5055320;28;20962;-48
2022/08/09 04:38:49;;;;;;;4.03;2.90;;;19.30;56.40;;;;;;5036010;28;20994;-48
2022/08/09 04:41:18;;;;;;;4.57;2.37;;;19.30;56.50;;;;;;5043281;28;20458;-48
2022/08/09 04:43:52;;;;;;;3.17;2.80;;;19.30;56.70;;;;;;5053829;28;20891;-48
2022/08/09 04:46:33;;;;;;;3.57;2.97;;;19.40;56.70;;;;;;5051464;28;20458;-48
2022/08/09 04:49:20;;;;;;;4.47;2.77;;;19.40;56.60;;;;;;5056232;28;20464;-48
2022/08/09 04:51:56;;;;;;;4.10;3.03;;;19.40;56.70;;;;;;5056509;28;20828;-48
2022/08/09 04:54:22;;;;;;;4.30;2.43;;;19.40;56.70;;;;;;5044159;28;20544;-48
2022/08/09 04:56:49;;;;;;;3.10;2.80;;;19.40;56.60;;;;;;5053896;28;20503;-49
2022/08/09 04:59:16;;;;;;;4.80;2.50;;;19.40;56.60;;;;;;5037894;28;20481;-48
2022/08/09 05:01:47;;;;;;;3.70;2.80;;;19.40;56.70;;;;;;5056248;28;20458;-48
2022/08/09 05:04:14;;;;;;;3.43;2.53;;;19.50;56.70;;;;;;5036556;28;21060;-48
2022/08/09 05:06:41;;;;;;;3.30;2.80;;;19.50;57.10;;;;;;5043172;28;20480;-48
2022/08/09 05:09:09;;;;;;;3.20;2.90;;;19.50;57.10;;;;;;5054164;28;20463;-48
2022/08/09 05:11:38;;;;;;;3.07;2.70;;;19.50;56.90;;;;;;5069997;28;21490;-49
2022/08/09 05:14:09;;;;;;;7.97;3.40;;;19.60;56.70;;;;;;5057966;28;20888;-49
2022/08/09 05:16:40;;;;;;;4.10;2.70;;;19.60;56.50;;;;;;5054250;28;20540;-49
2022/08/09 05:19:26;;;;;;;4.03;2.67;;;19.60;56.20;;;;;;5056606;28;21051;-49
2022/08/09 05:22:12;;;;;;;4.47;2.90;;;19.60;56.40;;;;;;5035270;28;20469;-48
2022/08/09 05:24:59;;;;;;;3.40;2.50;;;19.70;56.50;;;;;;5056326;28;20498;-48
2022/08/09 05:27:28;;;;;;;3.40;2.80;;;19.70;56.60;;;;;;5069614;28;20454;-49
2022/08/09 05:29:56;;;;;;;3.37;3.07;;;19.70;56.90;;;;;;5050774;28;20545;-49
2022/08/09 05:32:25;;;;;;;2.87;2.53;;;19.80;57.00;;;;;;5048551;28;20461;-48
2022/08/09 05:34:55;;;;;;;2.97;2.63;;;19.80;57.10;;;;;;5039377;28;20485;-49
2022/08/09 05:37:22;;;;;;;4.20;3.80;;;19.90;57.30;;;;;;5056273;28;20488;-48
2022/08/09 05:39:51;;;;;;;6.03;2.77;;;19.90;57.20;;;;;;5060079;28;20487;-48
2022/08/09 05:42:18;;;;;;;5.97;3.17;;;20.00;57.60;;;;;;5057911;28;20488;-48
2022/08/09 05:44:54;;;;;;;4.03;2.87;;;20.00;57.40;;;;;;5057649;28;20588;-48
2022/08/09 05:47:23;;;;;;;3.50;3.10;;;20.10;57.40;;;;;;5061378;28;20464;-49
2022/08/09 05:49:51;;;;;;;5.60;3.20;;;20.10;57.50;;;;;;5060307;28;20945;-48
2022/08/09 05:52:39;;;;;;;4.50;2.83;;;20.20;57.70;;;;;;5059858;28;20873;-48
2022/08/09 05:55:09;;;;;;;3.67;3.37;;;20.30;57.60;;;;;;5044916;28;20564;-49
2022/08/09 05:57:47;;;;;;;3.53;2.63;;;20.40;57.10;;;;;;5058460;28;20543;-49
2022/08/09 06:00:25;;;;;;;3.43;2.90;;;20.50;57.20;;;;;;5045623;28;20472;-49
2022/08/09 06:02:58;;;;;;;4.53;3.07;;;20.60;57.20;;;;;;5058889;28;20545;-48
2022/08/09 06:05:30;;;;;;;7.40;3.83;;;20.60;57.20;;;;;;5059740;28;20457;-49
2022/08/09 06:08:17;;;;;;;6.07;3.27;;;20.70;56.50;;;;;;5052593;28;20461;-49
2022/08/09 06:10:54;;;;;;;5.27;3.50;;;20.80;55.80;;;;;;5044828;28;20536;-49
2022/08/09 06:13:21;;;;;;;5.53;3.07;;;20.90;56.00;;;;;;5057391;28;20998;-49
2022/08/09 06:15:49;;;;;;;4.10;3.43;;;21.00;56.00;;;;;;5056237;28;20479;-50
2022/08/09 06:18:20;;;;;;;5.17;3.10;;;21.10;55.90;;;;;;5060384;28;20470;-49
2022/08/09 06:20:53;;;;;;;9.60;2.90;;;21.20;55.50;;;;;;5074518;28;20962;-49
2022/08/09 06:23:25;;;;;;;5.37;3.30;;;21.30;54.90;;;;;;5059420;28;20962;-49
2022/08/09 06:26:12;;;;;;;3.43;2.77;;;21.40;54.90;;;;;;5055076;28;20459;-49
2022/08/09 06:28:40;;;;;;;5.73;3.33;;;21.50;54.90;;;;;;5076298;28;20458;-49
2022/08/09 06:31:09;;;;;;;9.37;3.30;;;21.60;54.80;;;;;;5048847;28;20949;-49
2022/08/09 06:33:36;;;;;;;4.40;3.20;;;21.80;54.00;;;;;;5050717;28;20945;-49
2022/08/09 06:36:08;;;;;;;5.83;3.47;;;21.90;52.80;;;;;;5058725;28;20535;-49
2022/08/09 06:38:34;;;;;;;4.30;2.37;;;22.10;51.80;;;;;;5059685;28;20485;-49
2022/08/09 06:41:04;;;;;;;9.40;2.83;;;22.20;51.10;;;;;;5060976;28;20454;-49
2022/08/09 06:43:45;;;;;;;10.83;2.60;;;22.40;50.10;;;;;;5058034;28;20856;-49
2022/08/09 06:46:12;;;;;;;7.90;2.77;;;22.50;49.10;;;;;;5050830;28;20553;-49
2022/08/09 06:48:58;;;;;;;4.30;2.50;;;22.60;48.50;;;;;;5052907;28;20453;-51
2022/08/09 06:51:26;;;;;;;8.13;2.67;;;22.80;48.30;;;;;;5049753;28;20533;-51
2022/08/09 06:53:54;;;;;;;3.43;2.63;;;23.00;48.00;;;;;;5034992;28;20859;-51
2022/08/09 06:56:26;;;;;;;3.70;2.67;;;23.10;47.80;;;;;;5056547;28;20466;-50
2022/08/09 06:58:57;;;;;;;4.80;2.50;;;23.20;47.50;;;;;;5058108;28;20573;-51
2022/08/09 07:01:44;;;;;;;3.47;2.37;;;23.40;47.60;;;;;;5047527;28;20829;-51
2022/08/09 07:04:23;;;;;;;3.40;2.90;;;23.50;46.90;;;;;;5039031;28;20460;-51
2022/08/09 07:06:53;;;;;;;4.17;2.50;;;23.60;46.00;;;;;;5054059;28;20462;-51
2022/08/09 07:09:28;;;;;;;6.33;2.87;;;23.70;45.50;;;;;;5040639;28;20547;-51
2022/08/09 07:12:15;;;;;;;2.47;2.27;;;23.80;45.40;;;;;;5041845;28;20811;-51
2022/08/09 07:14:44;;;;;;;5.10;2.10;;;23.90;45.00;;;;;;5053126;28;20473;-51
2022/08/09 07:17:20;;;;;;;4.17;1.93;;;24.00;45.00;;;;;;5029331;28;20494;-51
2022/08/09 07:19:48;;;;;;;6.27;2.40;;;24.10;44.90;;;;;;5047641;28;21101;-51
2022/08/09 07:22:17;;;;;;;3.47;2.30;;;24.20;44.20;;;;;;5056784;28;21393;-51
2022/08/09 07:25:01;;;;;;;3.50;2.80;;;24.30;44.10;;;;;;5044036;28;20552;-51
2022/08/09 07:27:36;;;;;;;3.37;2.40;;;24.50;44.10;;;;;;5052971;28;21030;-51
2022/08/09 07:30:19;;;;;;;3.93;2.70;;;24.60;44.10;;;;;;5043191;28;20985;-51
2022/08/09 07:32:50;;;;;;;2.37;1.97;;;24.80;43.90;;;;;;5051399;28;20523;-51
2022/08/09 07:35:18;;;;;;;3.40;2.10;;;25.00;43.90;;;;;;5056132;28;20494;-51
2022/08/09 07:37:45;;;;;;;2.87;2.57;;;25.10;43.50;;;;;;5032901;28;20466;-51
2022/08/09 07:40:16;;;;;;;3.00;2.70;;;25.30;43.30;;;;;;5057920;28;21010;-51
2022/08/09 07:42:54;;;;;;;2.63;2.23;;;25.50;43.10;;;;;;5038325;28;20991;-51
2022/08/09 07:45:26;;;;;;;2.87;2.57;;;25.60;42.60;;;;;;5049482;28;20460;-51
2022/08/09 07:48:08;;;;;;;2.90;2.70;;;25.70;42.50;;;;;;5059876;28;20458;-51
2022/08/09 07:50:57;;;;;;;6.83;2.97;;;25.80;42.50;;;;;;5058826;28;20862;-51
2022/08/09 07:53:44;;;;;;;7.93;2.33;;;26.00;42.60;;;;;;5045752;28;20466;-51
2022/08/09 07:56:32;;;;;;;2.80;2.60;;;26.10;42.40;;;;;;5050315;28;20466;-51
2022/08/09 07:58:59;;;;;;;2.53;2.33;;;26.20;42.20;;;;;;5058008;28;20501;-51
2022/08/09 08:01:26;;;;;;;6.00;2.33;;;26.40;41.80;;;;;;5058684;28;20810;-51
2022/08/09 08:04:01;;;;;;;5.80;2.20;;;26.50;41.90;;;;;;5038931;28;20457;-51
2022/08/09 08:06:29;;;;;;;4.83;2.13;;;26.60;41.70;;;;;;5058015;28;20493;-51
2022/08/09 08:08:58;;;;;;;2.50;2.23;;;26.70;41.60;;;;;;5053509;28;20458;-51
2022/08/09 08:11:30;;;;;;;2.30;2.10;;;26.80;41.40;;;;;;5044360;28;20546;-51
2022/08/09 08:14:17;;;;;;;3.30;2.03;;;26.90;41.30;;;;;;5058269;28;20458;-51
2022/08/09 08:16:47;;;;;;;3.50;2.30;;;27.10;41.20;;;;;;5053345;28;20838;-51
2022/08/09 08:19:33;;;;;;;3.07;2.40;;;27.20;40.90;;;;;;5045113;28;20466;-51
2022/08/09 08:22:01;;;;;;;3.27;2.33;;;27.30;40.80;;;;;;5054314;28;20946;-51
2022/08/09 08:24:28;;;;;;;4.67;2.60;;;27.30;40.40;;;;;;5048517;28;20470;-51
2022/08/09 08:27:06;;;;;;;2.33;2.13;;;27.40;40.40;;;;;;5052625;28;20464;-51
2022/08/09 08:29:44;;;;;;;2.50;2.30;;;27.50;40.30;;;;;;5055230;28;20453;-51
2022/08/09 08:32:16;;;;;;;4.63;2.33;;;27.60;40.20;;;;;;5038566;28;20922;-51
2022/08/09 08:34:54;;;;;;;3.90;2.50;;;27.70;40.10;;;;;;5038434;28;20458;-49
2022/08/09 08:37:25;;;;;;;4.13;2.87;;;27.80;39.90;;;;;;5056303;28;20461;-49
2022/08/09 08:40:12;;;;;;;7.33;2.43;;;27.90;39.60;;;;;;5055756;28;20472;-50
2022/08/09 08:42:43;;;;;;;5.47;2.97;;;28.00;39.70;;;;;;5051771;28;20203;-49
2022/08/09 08:45:15;;;;;;;5.17;2.40;;;28.10;39.40;;;;;;5041283;28;20936;-49
2022/08/09 08:47:44;;;;;;;4.83;2.23;;;28.20;39.10;;;;;;5053098;28;21085;-49
2022/08/09 08:50:14;;;;;;;2.63;2.43;;;28.30;39.00;;;;;;5053506;28;20222;-49
2022/08/09 08:52:44;;;;;;;5.80;2.40;;;28.30;39.20;;;;;;5053552;28;20234;-49
2022/08/09 08:55:26;;;;;;;2.97;2.40;;;28.30;39.00;;;;;;5057409;28;20230;-49
2022/08/09 08:57:54;;;;;;;3.77;2.20;;;28.40;39.10;;;;;;5035616;28;20234;-50
2022/08/09 09:00:24;;;;;;;3.00;2.20;;;28.50;39.10;;;;;;5042059;28;20231;-50
2022/08/09 09:03:01;;;;;;;2.77;2.57;;;28.60;39.00;;;;;;5055444;28;20215;-49
2022/08/09 09:05:39;;;;;;;2.80;2.60;;;28.70;38.70;;;;;;5056022;28;20207;-49
2022/08/09 09:08:30;;;;;;;2.93;2.07;;;28.90;38.80;;;;;;5059374;28;20196;-50
2022/08/09 09:11:04;;;;;;;3.33;2.40;;;29.00;38.30;;;;;;5063617;28;20203;-50
2022/08/09 09:13:36;;;;;;;2.57;2.37;;;29.10;38.30;;;;;;5063804;28;20567;-50
2022/08/09 09:16:23;;;;;;;2.30;2.17;;;29.10;38.00;;;;;;5041592;28;20250;-50
2022/08/09 09:19:05;;;;;;;3.50;2.40;;;29.10;38.00;;;;;;5056535;28;20214;-50
2022/08/09 09:22:12;;;;;;;11.90;3.27;;;29.20;38.50;;;;;;5060702;28;20633;-49
2022/08/09 09:24:52;;;;;;;2.67;2.47;;;29.20;38.00;;;;;;5060866;28;20207;-50
2022/08/09 09:27:39;;;;;;;3.30;2.53;;;29.30;38.20;;;;;;5062604;28;20563;-50
2022/08/09 09:30:26;;;;;;;3.03;2.07;;;29.40;38.10;;;;;;5042655;28;20622;-50
2022/08/09 09:33:11;;;;;;;7.40;2.63;;;29.50;37.90;;;;;;5050271;28;20310;-50
2022/08/09 09:35:59;;;;;;;5.00;2.47;;;29.60;37.90;;;;;;5059191;28;20731;-50
2022/08/09 09:38:51;;;;;;;5.10;3.28;;;29.70;37.20;;;;;;5041443;28;20210;-50
2022/08/09 09:41:26;;;;;;;4.60;2.67;;;29.70;37.10;;;;;;5045120;28;20474;-50
2022/08/09 09:44:06;;;;;;;4.90;2.60;;;29.80;37.20;;;;;;5053441;28;20693;-50
2022/08/09 09:46:44;;;;;;;3.03;2.53;;;30.00;37.20;;;;;;5054061;28;20195;-50
2022/08/09 09:49:22;;;;;;;2.67;2.25;;;30.10;37.10;;;;;;5061034;28;20655;-50
2022/08/09 09:52:10;;;;;;;2.70;2.50;;;30.20;36.70;;;;;;5058192;28;20218;-50
2022/08/09 09:55:06;;;;;;;4.18;2.80;;;30.30;36.70;;;;;;5048686;28;20287;-50
2022/08/09 09:57:57;;;;;;;4.43;2.45;;;30.50;36.60;;;;;;5059339;28;20227;-50
2022/08/09 10:00:30;;;;;;;2.40;2.20;;;30.70;36.60;;;;;;5054927;28;20692;-50
2022/08/09 10:02:58;;;;;;;9.02;2.38;;;30.70;35.80;;;;;;5058473;28;20635;-50
2022/08/09 10:05:25;;;;;;;3.22;2.42;;;30.80;35.70;;;;;;5059156;28;20215;-50
2022/08/09 10:08:12;;;;;;;2.92;2.63;;;30.90;35.50;;;;;;5065467;28;20651;-50
2022/08/09 10:10:54;;;;;;;2.40;2.20;;;31.10;35.30;;;;;;5060569;28;20207;-50
2022/08/09 10:13:21;;;;;;;2.67;2.47;;;31.20;35.10;;;;;;5047105;28;20223;-50
2022/08/09 10:16:08;;;;;;;6.15;2.40;;;31.40;34.30;;;;;;5055059;28;20463;-50
2022/08/09 10:18:58;;;;;;;2.70;1.92;;;31.50;34.20;;;;;;5047209;28;20202;-50
2022/08/09 10:21:26;;;;;;;2.80;2.45;;;31.60;34.10;;;;;;5074157;28;20231;-50
2022/08/09 10:23:54;;;;;;;2.75;2.00;;;31.70;33.90;;;;;;5045647;28;20198;-50
2022/08/09 10:26:22;;;;;;;2.88;2.40;;;31.80;33.60;;;;;;5061193;28;20229;-50
2022/08/09 10:28:50;;;;;;;2.65;2.45;;;31.90;33.70;;;;;;5039371;28;20220;-50
2022/08/09 10:31:38;;;;;;;2.58;2.38;;;32.00;33.30;;;;;;5055880;28;20214;-50
2022/08/09 10:34:25;;;;;;;2.92;2.63;;;32.00;33.30;;;;;;5041922;28;20334;-50
2022/08/09 10:37:01;;;;;;;2.13;1.92;;;31.90;33.10;;;;;;5058191;28;20305;-50
2022/08/09 10:39:29;;;;;;;2.50;2.30;;;31.90;33.10;;;;;;5056743;28;20963;-50
2022/08/09 10:42:14;;;;;;;3.05;2.22;;;31.70;33.30;;;;;;5045670;28;20203;-50
2022/08/09 10:44:53;;;;;;;2.75;2.50;;;31.60;33.30;;;;;;5060124;28;20709;-50
2022/08/09 10:47:36;;;;;;;3.30;2.00;;;31.50;33.50;;;;;;5054422;28;20298;-50
2022/08/09 10:54:15;;;;;;;2.65;2.00;;;31.10;33.20;;;;;;5058525;28;20817;-49
2022/08/09 10:56:42;;;;;;;3.97;2.33;;;30.90;33.20;;;;;;5018837;28;20670;-49
2022/08/09 10:59:24;;;;;;;5.57;2.22;;;30.80;33.60;;;;;;5007532;28;20605;-49
2022/08/09 11:01:57;;;;;;;2.47;2.28;;;30.70;33.80;;;;;;5041772;28;20646;-49
2022/08/09 11:05:23;;;;;;;2.33;2.22;;;30.70;33.90;;;;;;5058018;28;20222;-49
2022/08/09 11:07:55;;;;;;;3.67;1.70;;;30.60;33.40;;;;;;5057315;28;20253;-50
2022/08/09 11:10:40;;;;;;;3.20;2.10;;;30.60;33.40;;;;;;5039843;28;20772;-50
2022/08/09 11:13:20;;;;;;;2.47;2.28;;;30.50;33.60;;;;;;5055874;28;20216;-50
2022/08/09 11:16:36;;;;;;;2.83;2.43;;;30.40;34.00;;;;;;5047174;28;20214;-50
2022/08/09 11:19:06;;;;;;;2.43;2.20;;;30.40;33.90;;;;;;5053910;28;20296;-50
2022/08/09 11:21:57;;;;;;;4.05;1.80;;;30.20;33.90;;;;;;5037345;28;20282;-50
2022/08/09 11:25:04;;;;;;;2.45;2.08;;;30.20;34.30;;;;;;5044810;28;20229;-50
2022/08/09 11:27:35;;;;;;;2.80;2.30;;;30.10;33.90;;;;;;5051885;28;20289;-49
2022/08/09 11:30:22;;;;;;;2.58;2.08;;;30.00;34.00;;;;;;5047029;28;20217;-50
2022/08/09 11:33:04;;;;;;;4.45;1.90;;;29.90;34.40;;;;;;5054759;28;20586;-50
2022/08/09 11:35:45;;;;;;;2.50;2.30;;;29.90;34.40;;;;;;5056676;28;20199;-50
2022/08/09 11:38:28;;;;;;;5.33;2.30;;;29.80;34.50;;;;;;5043714;28;20210;-50
2022/08/09 11:41:15;;;;;;;3.10;2.50;;;29.70;34.40;;;;;;5058456;28;20256;-50
2022/08/09 11:43:48;;;;;;;2.13;1.93;;;29.60;34.30;;;;;;5056847;28;20204;-50
2022/08/09 11:46:17;;;;;;;2.23;2.10;;;29.60;34.30;;;;;;5055520;28;20202;-49
2022/08/09 11:48:59;;;;;;;2.00;1.80;;;29.50;34.20;;;;;;5057961;28;20207;-50
2022/08/09 11:51:59;;;;;;;3.03;2.17;;;29.50;34.80;;;;;;5049349;28;20680;-50
2022/08/09 11:55:24;;;;;;;4.50;2.13;;;29.50;34.40;;;;;;5050836;28;20573;-50
2022/08/09 11:58:14;;;;;;;3.47;2.17;;;29.50;34.50;;;;;;5049187;28;20595;-50
2022/08/09 12:00:55;;;;;;;2.80;2.27;;;29.40;34.50;;;;;;5067349;28;20727;-50
2022/08/09 12:03:24;;;;;;;2.40;1.93;;;29.40;34.50;;;;;;5046909;28;20210;-50
2022/08/09 12:06:15;;;;;;;2.60;2.40;;;29.40;34.50;;;;;;5037014;28;20405;-50
2022/08/09 12:08:52;;;;;;;2.27;2.07;;;29.40;34.80;;;;;;5058852;28;20210;-50
2022/08/09 12:11:23;;;;;;;2.43;2.23;;;29.50;35.10;;;;;;5056983;28;20757;-50
2022/08/09 12:13:58;;;;;;;2.73;1.93;;;29.50;35.10;;;;;;5057315;28;20215;-50
2022/08/09 12:16:40;;;;;;;3.53;1.77;;;29.50;34.70;;;;;;5050084;28;20257;-50
2022/08/09 12:19:11;;;;;;;3.03;2.43;;;29.50;34.70;;;;;;5049898;28;20239;-50
2022/08/09 12:21:43;;;;;;;2.03;1.70;;;29.50;34.60;;;;;;5070219;28;20218;-50
2022/08/09 12:24:22;;;;;;;3.70;2.10;;;29.60;35.30;;;;;;5037929;28;20704;-50
2022/08/09 12:26:55;;;;;;;1.83;1.73;;;29.60;34.70;;;;;;5055267;28;20210;-50
2022/08/09 12:29:53;;;;;;;2.80;2.20;;;29.60;34.60;;;;;;5056206;28;20261;-50
2022/08/09 12:32:40;;;;;;;2.60;2.10;;;29.60;35.10;;;;;;5054455;28;20210;-50
2022/08/09 12:35:07;;;;;;;4.03;2.33;;;29.60;34.90;;;;;;5057882;28;20206;-50
2022/08/09 12:37:40;;;;;;;4.33;2.07;;;29.60;34.70;;;;;;5026039;28;20226;-50
2022/08/09 12:40:20;;;;;;;5.20;2.10;;;29.60;34.80;;;;;;5047359;28;20261;-50
2022/08/09 12:42:50;;;;;;;2.40;2.10;;;29.60;34.60;;;;;;5032398;28;20213;-50
2022/08/09 12:45:18;;;;;;;7.13;2.20;;;29.60;34.70;;;;;;5039232;28;20211;-50
2022/08/09 12:48:09;;;;;;;2.40;2.07;;;29.70;34.70;;;;;;5053157;28;20205;-50
2022/08/09 12:50:57;;;;;;;4.17;1.67;;;29.70;34.30;;;;;;5040974;28;20207;-50
2022/08/09 12:53:39;;;;;;;2.50;2.03;;;29.80;34.40;;;;;;5057056;28;20266;-50
2022/08/09 12:56:20;;;;;;;2.45;2.30;;;29.80;34.30;;;;;;5043778;28;20214;-50
2022/08/09 12:59:13;;;;;;;2.60;2.03;;;29.80;34.50;;;;;;5042393;28;20685;-50
2022/08/09 13:01:44;;;;;;;4.13;2.42;;;29.80;34.50;;;;;;5051509;28;20255;-50
2022/08/09 13:04:16;;;;;;;2.67;2.07;;;29.70;34.50;;;;;;5054668;28;20203;-50
2022/08/09 13:07:17;;;;;;;2.25;1.88;;;29.80;34.50;;;;;;5058223;28;20782;-50
2022/08/09 13:10:03;;;;;;;4.50;2.10;;;29.80;34.30;;;;;;5059390;28;20294;-50
2022/08/09 13:12:30;;;;;;;4.30;2.40;;;29.70;34.20;;;;;;5043890;28;20210;-50
2022/08/09 13:15:08;;;;;;;2.80;2.22;;;29.80;34.00;;;;;;5056147;28;20210;-50
2022/08/09 13:17:35;;;;;;;1.98;1.75;;;29.80;34.00;;;;;;5037070;28;20214;-50
2022/08/09 13:20:35;;;;;;;2.65;1.95;;;29.90;34.60;;;;;;5059055;28;20230;-50
2022/08/09 13:23:41;;;;;;;3.05;2.08;;;29.90;34.30;;;;;;5055348;28;20216;-50
2022/08/09 13:26:36;;;;;;;2.00;1.77;;;30.00;34.30;;;;;;5053995;28;20217;-50
2022/08/09 13:29:07;;;;;;;5.05;2.20;;;30.00;33.90;;;;;;5059087;28;20376;-50
2022/08/09 13:31:56;;;;;;;3.80;2.28;;;30.00;33.80;;;;;;5042328;28;20261;-50
2022/08/09 13:34:43;;;;;;;2.08;1.98;;;30.00;33.30;;;;;;5040393;28;20211;-50
2022/08/09 13:37:13;;;;;;;1.95;1.85;;;30.00;33.50;;;;;;5060179;28;20203;-50
2022/08/09 13:40:01;;;;;;;4.65;2.53;;;30.00;33.80;;;;;;5056651;28;20208;-50
2022/08/09 13:42:48;;;;;;;2.25;2.15;;;30.00;33.50;;;;;;5054811;28;20912;-50
2022/08/09 13:45:16;;;;;;;3.13;1.83;;;30.00;33.40;;;;;;5039199;28;20204;-50